Terminal Aerodrome Forecast
Issued by NWS Upton, NY

Home | Current Version | Previous Version | Text Only | Print | Product List | Glossary On
Versions: 1 2 3 4 5 6 7 8 9 10 11 12 13 14 15 16 17 18 19 20 21 22 23 24 25 26 27 28
795
FTUS41 KOKX 071137
TAFJFK
TAF
KJFK 071137Z 0712/0818 27005KT P6SM SKC
     FM071500 VRB04KT P6SM SCT250
     FM072000 08007KT P6SM BKN250
     FM072200 05009KT P6SM BKN250
     FM080300 04011KT P6SM OVC250
     FM080600 03014G21KT P6SM FEW020 OVC200
     FM081000 03018G25KT P6SM BKN020=

USA.gov is the U.S. government's official web portal to all federal, state and local government web resources and services.